Time,TemperatureF,DewpointF,PressureIn,WindDirection,WindDirectionDegrees,WindSpeedMPH,WindSpeedGustMPH,Humidity,HourlyPrecipIn,Conditions,Clouds,dailyrainin,SoftwareType,DateUTC
2013-04-20 00:04:00,26.0,21.5,29.68,WSW,241,4.0,7.0,83,0.00,,,0.00,Wunderground v.1.15,2013-04-20 05:04:00,
2013-04-20 00:10:00,26.1,21.1,29.69,West,278,6.0,6.0,81,0.00,,,0.00,Wunderground v.1.15,2013-04-20 05:10:00,
2013-04-20 00:16:00,26.4,21.7,29.69,WNW,300,5.0,6.0,82,0.00,,,0.00,Wunderground v.1.15,2013-04-20 05:16:00,
2013-04-20 00:22:00,26.5,22.0,29.69,WNW,289,3.0,6.0,83,0.00,,,0.00,Wunderground v.1.15,2013-04-20 05:22:00,
2013-04-20 00:28:00,26.4,21.4,29.69,NNW,340,4.0,6.0,81,0.00,,,0.00,Wunderground v.1.15,2013-04-20 05:28:00,
2013-04-20 00:34:00,26.5,21.5,29.69,West,280,5.0,7.0,81,0.00,,,0.00,Wunderground v.1.15,2013-04-20 05:34:00,
2013-04-20 00:40:00,26.3,20.1,29.70,NW,304,5.0,5.0,77,0.00,,,0.00,Wunderground v.1.15,2013-04-20 05:40:00,
2013-04-20 00:46:00,25.9,19.7,29.70,WNW,294,5.0,6.0,77,0.00,,,0.00,Wunderground v.1.15,2013-04-20 05:46:00,
2013-04-20 00:52:00,25.7,19.8,29.71,West,277,6.0,6.0,78,0.00,,,0.00,Wunderground v.1.15,2013-04-20 05:52:00,
2013-04-20 00:58:00,25.4,20.4,29.71,WNW,284,5.0,8.0,81,0.00,,,0.00,Wunderground v.1.15,2013-04-20 05:58:00,
2013-04-20 01:04:00,24.6,20.5,29.71,WNW,293,5.0,6.0,84,0.00,,,0.00,Wunderground v.1.15,2013-04-20 06:04:00,
2013-04-20 01:10:00,24.3,20.7,29.71,West,273,5.0,5.0,86,0.00,,,0.00,Wunderground v.1.15,2013-04-20 06:10:00,
2013-04-20 01:16:00,24.8,20.9,29.72,NW,315,4.0,5.0,85,0.00,,,0.00,Wunderground v.1.15,2013-04-20 06:16:00,
2013-04-20 01:22:00,25.0,20.3,29.72,West,259,5.0,5.0,82,0.00,,,0.00,Wunderground v.1.15,2013-04-20 06:22:00,
2013-04-20 01:28:00,25.3,20.3,29.72,NW,304,4.0,7.0,81,0.00,,,0.00,Wunderground v.1.15,2013-04-20 06:28:00,
2013-04-20 01:34:00,25.3,20.6,29.72,West,281,5.0,10.0,82,0.00,,,0.00,Wunderground v.1.15,2013-04-20 06:34:00,
2013-04-20 01:40:00,25.7,20.4,29.73,SW,215,5.0,5.0,80,0.00,,,0.00,Wunderground v.1.15,2013-04-20 06:40:00,
2013-04-20 01:46:00,25.1,20.7,29.73,North,355,4.0,7.0,83,0.00,,,0.00,Wunderground v.1.15,2013-04-20 06:46:00,
2013-04-20 01:52:00,24.7,20.8,29.74,WNW,296,3.0,3.0,85,0.00,,,0.00,Wunderground v.1.15,2013-04-20 06:52:00,
2013-04-20 01:58:00,24.6,19.9,29.74,WNW,284,3.0,10.0,82,0.00,,,0.00,Wunderground v.1.15,2013-04-20 06:58:00,
2013-04-20 02:04:00,24.3,19.6,29.75,NW,321,4.0,6.0,82,0.00,,,0.00,Wunderground v.1.15,2013-04-20 07:04:00,
2013-04-20 02:10:00,24.3,19.9,29.75,NE,34,4.0,4.0,83,0.00,,,0.00,Wunderground v.1.15,2013-04-20 07:10:00,
2013-04-20 02:16:00,24.6,19.9,29.75,WNW,300,4.0,9.0,82,0.00,,,0.00,Wunderground v.1.15,2013-04-20 07:16:00,
2013-04-20 02:22:00,24.8,18.6,29.75,NW,304,4.0,6.0,77,0.00,,,0.00,Wunderground v.1.15,2013-04-20 07:22:00,
2013-04-20 02:28:00,24.8,18.0,29.76,NNE,21,4.0,7.0,75,0.00,,,0.00,Wunderground v.1.15,2013-04-20 07:28:00,
2013-04-20 02:34:00,24.9,18.1,29.76,NW,306,5.0,6.0,75,0.00,,,0.00,Wunderground v.1.15,2013-04-20 07:34:00,
2013-04-20 02:40:00,24.9,18.4,29.77,West,274,4.0,4.0,76,0.00,,,0.00,Wunderground v.1.15,2013-04-20 07:40:00,
2013-04-20 02:46:00,24.8,18.3,29.78,ENE,74,3.0,6.0,76,0.00,,,0.00,Wunderground v.1.15,2013-04-20 07:46:00,
2013-04-20 02:52:00,24.8,18.0,29.78,NW,312,3.0,8.0,75,0.00,,,0.00,Wunderground v.1.15,2013-04-20 07:52:00,
2013-04-20 02:58:00,24.7,17.9,29.78,NNW,342,4.0,8.0,75,0.00,,,0.00,Wunderground v.1.15,2013-04-20 07:58:00,
2013-04-20 03:04:00,24.7,17.6,29.78,ESE,122,3.0,5.0,74,0.00,,,0.00,Wunderground v.1.15,2013-04-20 08:04:00,
2013-04-20 03:10:00,24.8,18.3,29.79,ENE,69,4.0,4.0,76,0.00,,,0.00,Wunderground v.1.15,2013-04-20 08:10:00,
2013-04-20 03:16:00,24.8,18.0,29.79,WSW,256,4.0,4.0,75,0.00,,,0.00,Wunderground v.1.15,2013-04-20 08:16:00,
2013-04-20 03:22:00,24.7,17.9,29.80,WNW,284,3.0,7.0,75,0.00,,,0.00,Wunderground v.1.15,2013-04-20 08:22:00,
2013-04-20 03:28:00,24.7,18.5,29.80,NW,319,3.0,7.0,77,0.00,,,0.00,Wunderground v.1.15,2013-04-20 08:28:00,
2013-04-20 03:34:00,24.7,18.5,29.80,WNW,300,3.0,3.0,77,0.00,,,0.00,Wunderground v.1.15,2013-04-20 08:34:00,
2013-04-20 03:40:00,24.6,18.7,29.81,NW,314,4.0,4.0,78,0.00,,,0.00,Wunderground v.1.15,2013-04-20 08:40:00,
2013-04-20 03:46:00,24.7,18.5,29.81,North,11,4.0,4.0,77,0.00,,,0.00,Wunderground v.1.15,2013-04-20 08:46:00,
2013-04-20 03:52:00,24.6,18.4,29.82,WNW,282,4.0,4.0,77,0.00,,,0.00,Wunderground v.1.15,2013-04-20 08:52:00,
2013-04-20 03:58:00,24.4,18.8,29.82,NW,326,3.0,5.0,79,0.00,,,0.00,Wunderground v.1.15,2013-04-20 08:58:00,
2013-04-20 04:04:00,24.5,18.9,29.83,NW,308,2.0,7.0,79,0.00,,,0.00,Wunderground v.1.15,2013-04-20 09:04:00,
2013-04-20 04:10:00,24.7,18.5,29.83,NW,309,3.0,5.0,77,0.00,,,0.00,Wunderground v.1.15,2013-04-20 09:10:00,
2013-04-20 04:16:00,24.6,18.4,29.83,NW,321,3.0,5.0,77,0.00,,,0.00,Wunderground v.1.15,2013-04-20 09:16:00,
2013-04-20 04:22:00,24.5,18.6,29.84,WNW,299,4.0,5.0,78,0.00,,,0.00,Wunderground v.1.15,2013-04-20 09:22:00,
2013-04-20 04:28:00,24.6,19.0,29.84,WNW,283,3.0,5.0,79,0.00,,,0.00,Wunderground v.1.15,2013-04-20 09:28:00,
2013-04-20 04:34:00,24.8,18.6,29.85,NW,308,3.0,4.0,77,0.00,,,0.00,Wunderground v.1.15,2013-04-20 09:34:00,
2013-04-20 04:40:00,24.9,18.4,29.85,WNW,289,4.0,8.0,76,0.00,,,0.00,Wunderground v.1.15,2013-04-20 09:40:00,
2013-04-20 04:46:00,24.7,18.2,29.86,WNW,299,4.0,8.0,76,0.00,,,0.00,Wunderground v.1.15,2013-04-20 09:46:00,
2013-04-20 04:52:00,24.7,18.2,29.86,WNW,289,4.0,8.0,76,0.00,,,0.00,Wunderground v.1.15,2013-04-20 09:52:00,
2013-04-20 04:58:00,24.7,17.9,29.87,SSE,163,4.0,8.0,75,0.00,,,0.00,Wunderground v.1.15,2013-04-20 09:58:00,
2013-04-20 05:04:00,24.7,17.9,29.87,WNW,285,3.0,4.0,75,0.00,,,0.00,Wunderground v.1.15,2013-04-20 10:04:00,
2013-04-20 05:10:00,24.6,18.1,29.88,WNW,297,3.0,3.0,76,0.00,,,0.00,Wunderground v.1.15,2013-04-20 10:10:00,
2013-04-20 05:16:00,24.7,18.2,29.88,ENE,77,3.0,3.0,76,0.00,,,0.00,Wunderground v.1.15,2013-04-20 10:16:00,
2013-04-20 05:22:00,24.7,18.5,29.88,WNW,293,3.0,5.0,77,0.00,,,0.00,Wunderground v.1.15,2013-04-20 10:22:00,
2013-04-20 05:28:00,24.6,17.8,29.89,NW,312,4.0,6.0,75,0.00,,,0.00,Wunderground v.1.15,2013-04-20 10:28:00,
2013-04-20 05:34:00,24.7,18.5,29.89,NW,304,4.0,4.0,77,0.00,,,0.00,Wunderground v.1.15,2013-04-20 10:34:00,
2013-04-20 05:40:00,25.0,19.1,29.89,WSW,239,4.0,4.0,78,0.00,,,0.00,Wunderground v.1.15,2013-04-20 10:40:00,
2013-04-20 05:46:00,24.9,18.7,29.90,NW,316,3.0,5.0,77,0.00,,,0.00,Wunderground v.1.15,2013-04-20 10:46:00,
2013-04-20 05:52:00,24.9,18.1,29.90,WNW,302,3.0,7.0,75,0.00,,,0.00,Wunderground v.1.15,2013-04-20 10:52:00,
2013-04-20 05:58:00,25.0,18.2,29.91,North,9,3.0,13.0,75,0.00,,,0.00,Wunderground v.1.15,2013-04-20 10:58:00,
2013-04-20 06:04:00,25.2,18.7,29.91,NW,317,3.0,4.0,76,0.00,,,0.00,Wunderground v.1.15,2013-04-20 11:04:00,
2013-04-20 06:10:00,25.1,18.3,29.92,NE,56,3.0,3.0,75,0.00,,,0.00,Wunderground v.1.15,2013-04-20 11:10:00,
2013-04-20 06:16:00,25.2,18.7,29.92,WNW,289,3.0,7.0,76,0.00,,,0.00,Wunderground v.1.15,2013-04-20 11:16:00,
2013-04-20 06:22:00,25.3,18.8,29.92,WNW,297,3.0,5.0,76,0.00,,,0.00,Wunderground v.1.15,2013-04-20 11:22:00,
2013-04-20 06:28:00,25.2,19.0,29.92,NE,52,3.0,5.0,77,0.00,,,0.00,Wunderground v.1.15,2013-04-20 11:28:00,
2013-04-20 06:34:00,25.2,19.0,29.93,NW,322,3.0,4.0,77,0.00,,,0.00,Wunderground v.1.15,2013-04-20 11:34:00,
2013-04-20 06:40:00,25.3,20.0,29.94,NW,308,2.0,2.0,80,0.00,,,0.00,Wunderground v.1.15,2013-04-20 11:40:00,
2013-04-20 06:46:00,25.3,19.7,29.94,WNW,285,3.0,6.0,79,0.00,,,0.00,Wunderground v.1.15,2013-04-20 11:46:00,
2013-04-20 06:52:00,25.4,19.5,29.94,NW,322,3.0,6.0,78,0.00,,,0.00,Wunderground v.1.15,2013-04-20 11:52:00,
2013-04-20 06:58:00,25.4,19.2,29.95,West,273,2.0,6.0,77,0.00,,,0.00,Wunderground v.1.15,2013-04-20 11:58:00,
2013-04-20 07:04:00,25.5,19.6,29.95,West,270,3.0,4.0,78,0.00,,,0.00,Wunderground v.1.15,2013-04-20 12:04:00,
2013-04-20 07:10:00,25.5,19.3,29.95,NW,305,3.0,3.0,77,0.00,,,0.00,Wunderground v.1.15,2013-04-20 12:10:00,
2013-04-20 07:16:00,25.4,19.2,29.96,West,277,2.0,5.0,77,0.00,,,0.00,Wunderground v.1.15,2013-04-20 12:16:00,
2013-04-20 07:22:00,25.5,19.3,29.96,West,281,2.0,10.0,77,0.00,,,0.00,Wunderground v.1.15,2013-04-20 12:22:00,
2013-04-20 07:28:00,25.8,19.6,29.97,WNW,293,2.0,10.0,77,0.00,,,0.00,Wunderground v.1.15,2013-04-20 12:28:00,
2013-04-20 07:34:00,26.2,19.7,29.97,SSE,167,3.0,3.0,76,0.00,,,0.00,Wunderground v.1.15,2013-04-20 12:34:00,
2013-04-20 07:40:00,26.6,20.1,29.97,WNW,295,4.0,4.0,76,0.00,,,0.00,Wunderground v.1.15,2013-04-20 12:40:00,
2013-04-20 07:46:00,26.6,20.4,29.98,WNW,290,4.0,6.0,77,0.00,,,0.00,Wunderground v.1.15,2013-04-20 12:46:00,
2013-04-20 07:52:00,26.7,20.5,29.98,NNE,23,4.0,8.0,77,0.00,,,0.00,Wunderground v.1.15,2013-04-20 12:52:00,
2013-04-20 07:58:00,26.6,20.4,29.99,East,94,4.0,8.0,77,0.00,,,0.00,Wunderground v.1.15,2013-04-20 12:58:00,
2013-04-20 08:04:00,26.5,20.0,29.99,NNE,26,4.0,6.0,76,0.00,,,0.00,Wunderground v.1.15,2013-04-20 13:04:00,
2013-04-20 08:10:00,26.6,20.7,29.99,NW,324,3.0,3.0,78,0.00,,,0.00,Wunderground v.1.15,2013-04-20 13:10:00,
2013-04-20 08:16:00,26.9,21.3,30.00,WNW,291,3.0,8.0,79,0.00,,,0.00,Wunderground v.1.15,2013-04-20 13:16:00,
2013-04-20 08:22:00,26.7,20.8,30.00,WSW,252,3.0,3.0,78,0.00,,,0.00,Wunderground v.1.15,2013-04-20 13:22:00,
2013-04-20 08:28:00,26.5,21.5,30.00,West,273,3.0,6.0,81,0.00,,,0.00,Wunderground v.1.15,2013-04-20 13:28:00,
2013-04-20 08:34:00,26.8,21.5,30.01,North,359,3.0,4.0,80,0.00,,,0.00,Wunderground v.1.15,2013-04-20 13:34:00,
2013-04-20 08:40:00,26.9,21.0,30.01,NW,323,3.0,5.0,78,0.00,,,0.00,Wunderground v.1.15,2013-04-20 13:40:00,
2013-04-20 08:46:00,27.3,21.0,30.02,West,276,3.0,6.0,77,0.00,,,0.00,Wunderground v.1.15,2013-04-20 13:46:00,
2013-04-20 08:52:00,27.5,21.2,30.02,North,354,4.0,5.0,77,0.00,,,0.00,Wunderground v.1.15,2013-04-20 13:52:00,
2013-04-20 08:58:00,27.6,21.0,30.02,West,274,4.0,6.0,76,0.00,,,0.00,Wunderground v.1.15,2013-04-20 13:58:00,
2013-04-20 09:04:00,27.8,21.2,30.03,WNW,299,3.0,3.0,76,0.00,,,0.00,Wunderground v.1.15,2013-04-20 14:04:00,
2013-04-20 09:10:00,27.6,21.6,30.04,NW,312,3.0,5.0,78,0.00,,,0.00,Wunderground v.1.15,2013-04-20 14:10:00,
2013-04-20 09:16:00,26.9,21.0,30.04,West,262,4.0,5.0,78,0.00,,,0.00,Wunderground v.1.15,2013-04-20 14:16:00,
2013-04-20 09:22:00,26.7,21.4,30.05,West,262,4.0,5.0,80,0.00,,,0.00,Wunderground v.1.15,2013-04-20 14:22:00,
2013-04-20 09:28:00,26.6,21.8,30.05,NW,314,3.0,7.0,82,0.00,,,0.00,Wunderground v.1.15,2013-04-20 14:28:00,
2013-04-20 09:34:00,26.5,21.7,30.06,NNE,20,3.0,6.0,82,0.00,,,0.00,Wunderground v.1.15,2013-04-20 14:34:00,
2013-04-20 09:40:00,26.7,22.2,30.06,WNW,297,3.0,3.0,83,0.00,,,0.00,Wunderground v.1.15,2013-04-20 14:40:00,
2013-04-20 09:46:00,26.7,22.5,30.07,West,281,2.0,7.0,84,0.00,,,0.00,Wunderground v.1.15,2013-04-20 14:46:00,
2013-04-20 09:52:00,26.5,22.9,30.07,NE,46,3.0,5.0,86,0.00,,,0.00,Wunderground v.1.15,2013-04-20 14:52:00,
2013-04-20 09:58:00,26.1,23.0,30.08,WNW,284,3.0,7.0,88,0.00,,,0.00,Wunderground v.1.15,2013-04-20 14:58:00,
2013-04-20 10:04:00,25.8,22.7,30.08,NNW,342,3.0,5.0,88,0.00,,,0.00,Wunderground v.1.15,2013-04-20 15:04:00,
2013-04-20 10:10:00,25.8,22.2,30.09,WNW,287,3.0,6.0,86,0.00,,,0.00,Wunderground v.1.15,2013-04-20 15:10:00,
2013-04-20 10:16:00,25.9,22.6,30.09,West,276,3.0,6.0,87,0.00,,,0.00,Wunderground v.1.15,2013-04-20 15:16:00,
2013-04-20 10:22:00,25.8,22.7,30.10,SW,223,3.0,3.0,88,0.00,,,0.00,Wunderground v.1.15,2013-04-20 15:22:00,
2013-04-20 10:28:00,26.2,23.1,30.10,WNW,302,3.0,4.0,88,0.00,,,0.00,Wunderground v.1.15,2013-04-20 15:28:00,
2013-04-20 10:34:00,26.6,23.5,30.11,WNW,285,3.0,4.0,88,0.00,,,0.00,Wunderground v.1.15,2013-04-20 15:34:00,
2013-04-20 10:40:00,26.9,23.5,30.11,WNW,287,2.0,4.0,87,0.00,,,0.00,Wunderground v.1.15,2013-04-20 15:40:00,
2013-04-20 10:46:00,27.1,23.5,30.11,WSW,250,3.0,6.0,86,0.00,,,0.00,Wunderground v.1.15,2013-04-20 15:46:00,
2013-04-20 10:52:00,27.2,23.6,30.12,West,269,3.0,3.0,86,0.00,,,0.00,Wunderground v.1.15,2013-04-20 15:52:00,
2013-04-20 10:58:00,27.9,24.0,30.12,WNW,300,3.0,3.0,85,0.00,,,0.00,Wunderground v.1.15,2013-04-20 15:58:00,
2013-04-20 11:04:00,28.1,23.6,30.13,WNW,285,3.0,5.0,83,0.00,,,0.00,Wunderground v.1.15,2013-04-20 16:04:00,
2013-04-20 11:10:00,28.2,23.7,30.13,West,267,3.0,3.0,83,0.00,,,0.00,Wunderground v.1.15,2013-04-20 16:10:00,
2013-04-20 11:16:00,28.5,24.3,30.14,WNW,287,2.0,3.0,84,0.00,,,0.00,Wunderground v.1.15,2013-04-20 16:16:00,
2013-04-20 11:22:00,28.1,23.3,30.14,West,274,3.0,3.0,82,0.00,,,0.00,Wunderground v.1.15,2013-04-20 16:22:00,
2013-04-20 11:28:00,28.0,23.2,30.15,WNW,288,3.0,3.0,82,0.00,,,0.00,Wunderground v.1.15,2013-04-20 16:28:00,
2013-04-20 11:34:00,28.6,23.8,30.15,West,281,3.0,4.0,82,0.00,,,0.00,Wunderground v.1.15,2013-04-20 16:34:00,
2013-04-20 11:40:00,28.8,22.8,30.15,SW,224,3.0,3.0,78,0.00,,,0.00,Wunderground v.1.15,2013-04-20 16:40:00,
2013-04-20 11:46:00,29.0,22.7,30.15,NW,309,3.0,5.0,77,0.00,,,0.00,Wunderground v.1.15,2013-04-20 16:46:00,
2013-04-20 11:52:00,29.7,23.7,30.16,West,259,3.0,4.0,78,0.00,,,0.00,Wunderground v.1.15,2013-04-20 16:52:00,
2013-04-20 11:58:00,29.8,23.8,30.16,WSW,251,3.0,6.0,78,0.00,,,0.00,Wunderground v.1.15,2013-04-20 16:58:00,
2013-04-20 12:04:00,29.9,22.6,30.16,WNW,302,3.0,4.0,74,0.00,,,0.00,Wunderground v.1.15,2013-04-20 17:04:00,
2013-04-20 12:10:00,30.2,23.2,30.17,West,269,3.0,5.0,75,0.00,,,0.00,Wunderground v.1.15,2013-04-20 17:10:00,
2013-04-20 12:16:00,30.1,24.1,30.17,WNW,282,3.0,5.0,78,0.00,,,0.00,Wunderground v.1.15,2013-04-20 17:16:00,
2013-04-20 12:22:00,29.9,23.6,30.17,WNW,285,3.0,3.0,77,0.00,,,0.00,Wunderground v.1.15,2013-04-20 17:22:00,
2013-04-20 12:28:00,29.2,23.8,30.18,West,267,3.0,4.0,80,0.00,,,0.00,Wunderground v.1.15,2013-04-20 17:28:00,
2013-04-20 12:34:00,28.9,24.1,30.18,West,276,3.0,4.0,82,0.00,,,0.00,Wunderground v.1.15,2013-04-20 17:34:00,
2013-04-20 12:40:00,28.7,23.0,30.18,NW,319,3.0,3.0,79,0.00,,,0.00,Wunderground v.1.15,2013-04-20 17:40:00,
2013-04-20 12:46:00,29.4,24.0,30.18,WNW,291,3.0,4.0,80,0.00,,,0.00,Wunderground v.1.15,2013-04-20 17:46:00,
2013-04-20 12:52:00,30.2,24.5,30.18,West,274,3.0,6.0,79,0.00,,,0.00,Wunderground v.1.15,2013-04-20 17:52:00,
2013-04-20 12:58:00,30.7,24.3,30.19,WNW,284,3.0,10.0,77,0.00,,,0.00,Wunderground v.1.15,2013-04-20 17:58:00,
2013-04-20 13:04:00,30.7,23.1,30.19,WNW,283,3.0,4.0,73,0.00,,,0.00,Wunderground v.1.15,2013-04-20 18:04:00,
2013-04-20 13:10:00,30.7,23.1,30.20,West,276,4.0,4.0,73,0.00,,,0.00,Wunderground v.1.15,2013-04-20 18:10:00,
2013-04-20 13:16:00,30.5,21.5,30.20,NW,315,4.0,6.0,69,0.00,,,0.00,Wunderground v.1.15,2013-04-20 18:16:00,
2013-04-20 13:22:00,30.9,22.6,30.20,WNW,297,3.0,4.0,71,0.00,,,0.00,Wunderground v.1.15,2013-04-20 18:22:00,
2013-04-20 13:28:00,30.4,22.4,30.21,NW,324,3.0,4.0,72,0.00,,,0.00,Wunderground v.1.15,2013-04-20 18:28:00,
2013-04-20 13:34:00,30.4,22.8,30.21,NNW,335,4.0,5.0,73,0.00,,,0.00,Wunderground v.1.15,2013-04-20 18:34:00,
2013-04-20 13:40:00,31.2,23.2,30.22,WNW,284,3.0,3.0,72,0.00,,,0.00,Wunderground v.1.15,2013-04-20 18:40:00,
2013-04-20 13:46:00,31.2,22.5,30.22,West,270,3.0,4.0,70,0.00,,,0.00,Wunderground v.1.15,2013-04-20 18:46:00,
2013-04-20 13:52:00,31.2,22.2,30.22,North,5,4.0,5.0,69,0.00,,,0.00,Wunderground v.1.15,2013-04-20 18:52:00,
2013-04-20 13:58:00,31.4,22.1,30.22,North,352,3.0,5.0,68,0.00,,,0.00,Wunderground v.1.15,2013-04-20 18:58:00,
2013-04-20 14:04:00,31.8,22.8,30.22,WNW,284,3.0,3.0,69,0.00,,,0.00,Wunderground v.1.15,2013-04-20 19:04:00,
2013-04-20 14:10:00,31.8,21.7,30.23,WNW,300,3.0,3.0,66,0.00,,,0.00,Wunderground v.1.15,2013-04-20 19:10:00,
2013-04-20 14:16:00,31.7,21.3,30.23,West,274,4.0,6.0,65,0.00,,,0.00,Wunderground v.1.15,2013-04-20 19:16:00,
2013-04-20 14:22:00,31.4,20.6,30.23,West,267,4.0,7.0,64,0.00,,,0.00,Wunderground v.1.15,2013-04-20 19:22:00,
2013-04-20 14:28:00,31.8,21.4,30.24,West,280,4.0,7.0,65,0.00,,,0.00,Wunderground v.1.15,2013-04-20 19:28:00,
2013-04-20 14:34:00,31.8,21.4,30.24,NW,322,3.0,4.0,65,0.00,,,0.00,Wunderground v.1.15,2013-04-20 19:34:00,
2013-04-20 14:40:00,32.2,21.0,30.25,WNW,297,3.0,3.0,63,0.00,,,0.00,Wunderground v.1.15,2013-04-20 19:40:00,
2013-04-20 14:46:00,31.8,19.1,30.25,NW,324,3.0,5.0,59,0.00,,,0.00,Wunderground v.1.15,2013-04-20 19:46:00,
2013-04-20 14:52:00,31.9,19.6,30.25,North,357,3.0,7.0,60,0.00,,,0.00,Wunderground v.1.15,2013-04-20 19:52:00,
2013-04-20 14:58:00,32.1,20.5,30.25,West,281,3.0,10.0,62,0.00,,,0.00,Wunderground v.1.15,2013-04-20 19:58:00,
2013-04-20 15:04:00,32.2,20.6,30.25,NW,314,3.0,4.0,62,0.00,,,0.00,Wunderground v.1.15,2013-04-20 20:04:00,
2013-04-20 15:10:00,32.0,18.9,30.26,WNW,289,3.0,3.0,58,0.00,,,0.00,Wunderground v.1.15,2013-04-20 20:10:00,
2013-04-20 15:16:00,31.7,19.8,30.26,West,276,3.0,3.0,61,0.00,,,0.00,Wunderground v.1.15,2013-04-20 20:16:00,
2013-04-20 15:22:00,32.0,20.1,30.26,West,266,3.0,4.0,61,0.00,,,0.00,Wunderground v.1.15,2013-04-20 20:22:00,
2013-04-20 15:28:00,31.8,19.9,30.27,West,259,3.0,4.0,61,0.00,,,0.00,Wunderground v.1.15,2013-04-20 20:28:00,
2013-04-20 15:34:00,32.2,19.5,30.27,WSW,248,3.0,4.0,59,0.00,,,0.01,Wunderground v.1.15,2013-04-20 20:34:00,
2013-04-20 15:40:00,32.0,19.7,30.28,NNW,339,3.0,3.0,60,0.00,,,0.01,Wunderground v.1.15,2013-04-20 20:40:00,
2013-04-20 15:46:00,32.1,19.8,30.28,NW,310,3.0,3.0,60,0.00,,,0.01,Wunderground v.1.15,2013-04-20 20:46:00,
2013-04-20 15:52:00,32.1,20.2,30.28,WNW,283,3.0,4.0,61,0.00,,,0.01,Wunderground v.1.15,2013-04-20 20:52:00,
2013-04-20 15:58:00,32.1,19.4,30.29,WNW,300,2.0,4.0,59,0.00,,,0.01,Wunderground v.1.15,2013-04-20 20:58:00,
2013-04-20 16:04:00,32.2,19.9,30.29,West,272,3.0,3.0,60,0.00,,,0.01,Wunderground v.1.15,2013-04-20 21:04:00,
2013-04-20 16:10:00,32.5,20.1,30.29,WNW,302,2.0,2.0,60,0.00,,,0.01,Wunderground v.1.15,2013-04-20 21:10:00,
2013-04-20 16:16:00,32.4,19.3,30.30,West,280,3.0,5.0,58,0.00,,,0.01,Wunderground v.1.15,2013-04-20 21:16:00,
2013-04-20 16:22:00,32.5,19.7,30.30,NW,307,3.0,3.0,59,0.00,,,0.01,Wunderground v.1.15,2013-04-20 21:22:00,
2013-04-20 16:28:00,32.7,19.1,30.30,NW,309,2.0,5.0,57,0.00,,,0.01,Wunderground v.1.15,2013-04-20 21:28:00,
2013-04-20 16:34:00,32.2,18.7,30.30,WNW,294,3.0,3.0,57,0.00,,,0.01,Wunderground v.1.15,2013-04-20 21:34:00,
2013-04-20 16:40:00,32.2,19.1,30.31,WNW,287,3.0,3.0,58,0.00,,,0.01,Wunderground v.1.15,2013-04-20 21:40:00,
2013-04-20 16:46:00,32.6,19.8,30.31,WNW,284,2.0,3.0,59,0.00,,,0.01,Wunderground v.1.15,2013-04-20 21:46:00,
2013-04-20 16:52:00,32.4,19.3,30.31,WNW,291,2.0,4.0,58,0.00,,,0.01,Wunderground v.1.15,2013-04-20 21:52:00,
2013-04-20 16:58:00,32.2,19.1,30.31,WNW,301,3.0,7.0,58,0.00,,,0.01,Wunderground v.1.15,2013-04-20 21:58:00,
2013-04-20 17:04:00,32.2,18.7,30.31,NW,304,3.0,4.0,57,0.00,,,0.01,Wunderground v.1.15,2013-04-20 22:04:00,
2013-04-20 17:10:00,32.4,19.7,30.31,WNW,290,3.0,3.0,59,0.00,,,0.01,Wunderground v.1.15,2013-04-20 22:10:00,
2013-04-20 17:16:00,32.2,19.5,30.32,West,278,2.0,3.0,59,0.00,,,0.01,Wunderground v.1.15,2013-04-20 22:16:00,
2013-04-20 17:22:00,32.2,19.1,30.32,West,262,2.0,4.0,58,0.00,,,0.01,Wunderground v.1.15,2013-04-20 22:22:00,
2013-04-20 17:28:00,32.0,18.9,30.32,West,280,2.0,4.0,58,0.00,,,0.01,Wunderground v.1.15,2013-04-20 22:28:00,
2013-04-20 17:34:00,32.0,18.9,30.32,West,274,2.0,4.0,58,0.00,,,0.01,Wunderground v.1.15,2013-04-20 22:34:00,
2013-04-20 17:40:00,31.8,19.1,30.32,NW,322,2.0,2.0,59,0.00,,,0.01,Wunderground v.1.15,2013-04-20 22:40:00,
2013-04-20 17:46:00,31.9,19.2,30.33,WNW,289,2.0,3.0,59,0.00,,,0.01,Wunderground v.1.15,2013-04-20 22:46:00,
2013-04-20 17:52:00,31.7,19.8,30.33,ESE,103,2.0,2.0,61,0.00,,,0.01,Wunderground v.1.15,2013-04-20 22:52:00,
2013-04-20 17:58:00,31.5,18.4,30.33,WNW,287,2.0,7.0,58,0.00,,,0.01,Wunderground v.1.15,2013-04-20 22:58:00,
2013-04-20 18:04:00,31.4,19.5,30.33,West,269,2.0,2.0,61,0.00,,,0.01,Wunderground v.1.15,2013-04-20 23:04:00,
2013-04-20 18:10:00,31.3,18.6,30.33,NW,326,2.0,2.0,59,0.00,,,0.01,Wunderground v.1.15,2013-04-20 23:10:00,
2013-04-20 18:16:00,31.3,18.6,30.34,WNW,297,2.0,3.0,59,0.00,,,0.01,Wunderground v.1.15,2013-04-20 23:16:00,
2013-04-20 18:22:00,31.3,19.0,30.33,WNW,290,2.0,2.0,60,0.00,,,0.01,Wunderground v.1.15,2013-04-20 23:22:00,
2013-04-20 18:28:00,31.6,18.9,30.34,West,277,1.0,2.0,59,0.00,,,0.01,Wunderground v.1.15,2013-04-20 23:28:00,
2013-04-20 18:34:00,31.6,18.9,30.34,WNW,284,1.0,3.0,59,0.00,,,0.01,Wunderground v.1.15,2013-04-20 23:34:00,
2013-04-20 18:40:00,31.4,18.7,30.34,West,274,1.0,1.0,59,0.00,,,0.01,Wunderground v.1.15,2013-04-20 23:40:00,
2013-04-20 18:46:00,31.3,18.6,30.34,WNW,287,1.0,1.0,59,0.00,,,0.01,Wunderground v.1.15,2013-04-20 23:46:00,
2013-04-20 18:52:00,31.3,18.6,30.34,NNW,329,1.0,1.0,59,0.00,,,0.01,Wunderground v.1.15,2013-04-20 23:52:00,
2013-04-20 18:58:00,30.9,18.6,30.34,NW,307,1.0,5.0,60,0.00,,,0.01,Wunderground v.1.15,2013-04-20 23:58:00,
2013-04-20 19:04:00,30.8,18.9,30.35,West,277,1.0,2.0,61,0.00,,,0.01,Wunderground v.1.15,2013-04-21 00:04:00,
2013-04-20 19:10:00,30.6,19.1,30.35,WNW,287,1.0,1.0,62,0.00,,,0.01,Wunderground v.1.15,2013-04-21 00:10:00,
2013-04-20 19:16:00,30.3,18.8,30.36,WNW,295,1.0,1.0,62,0.00,,,0.01,Wunderground v.1.15,2013-04-21 00:16:00,
2013-04-20 19:22:00,30.1,18.6,30.36,West,264,1.0,1.0,62,0.00,,,0.01,Wunderground v.1.15,2013-04-21 00:22:00,
2013-04-20 19:28:00,30.0,18.5,30.36,WNW,283,1.0,1.0,62,0.00,,,0.01,Wunderground v.1.15,2013-04-21 00:28:00,
2013-04-20 19:34:00,29.9,18.5,30.36,North,1,0.0,1.0,62,0.00,,,0.01,Wunderground v.1.15,2013-04-21 00:34:00,
2013-04-20 19:40:00,29.8,18.7,30.36,WNW,302,0.0,0.0,63,0.00,,,0.01,Wunderground v.1.15,2013-04-21 00:40:00,
2013-04-20 19:46:00,29.6,18.9,30.37,West,277,0.0,0.0,64,0.00,,,0.01,Wunderground v.1.15,2013-04-21 00:46:00,
2013-04-20 19:52:00,29.6,18.5,30.37,WNW,297,0.0,0.0,63,0.00,,,0.01,Wunderground v.1.15,2013-04-21 00:52:00,
2013-04-20 19:58:00,29.4,19.1,30.38,NE,39,0.0,1.0,65,0.00,,,0.01,Wunderground v.1.15,2013-04-21 00:58:00,
2013-04-20 20:04:00,29.3,18.6,30.38,NNE,30,0.0,0.0,64,0.00,,,0.01,Wunderground v.1.15,2013-04-21 01:04:00,
2013-04-20 20:10:00,29.2,18.2,30.38,NNE,29,0.0,0.0,63,0.00,,,0.01,Wunderground v.1.15,2013-04-21 01:10:00,
2013-04-20 20:16:00,29.1,17.7,30.39,NNE,32,0.0,0.0,62,0.00,,,0.01,Wunderground v.1.15,2013-04-21 01:16:00,
2013-04-20 20:22:00,29.1,17.7,30.39,NE,49,0.0,0.0,62,0.00,,,0.01,Wunderground v.1.15,2013-04-21 01:22:00,
2013-04-20 20:28:00,29.0,17.6,30.39,NE,48,0.0,0.0,62,0.00,,,0.01,Wunderground v.1.15,2013-04-21 01:28:00,
2013-04-20 20:34:00,28.8,17.0,30.39,NE,49,0.0,0.0,61,0.00,,,0.01,Wunderground v.1.15,2013-04-21 01:34:00,
2013-04-20 20:40:00,28.8,17.0,30.40,NNE,30,0.0,0.0,61,0.00,,,0.01,Wunderground v.1.15,2013-04-21 01:40:00,
2013-04-20 20:46:00,28.6,17.2,30.40,NE,40,0.0,1.0,62,0.00,,,0.01,Wunderground v.1.15,2013-04-21 01:46:00,
2013-04-20 20:52:00,28.6,16.8,30.40,NNE,18,0.0,0.0,61,0.00,,,0.01,Wunderground v.1.15,2013-04-21 01:52:00,
2013-04-20 20:58:00,28.5,16.7,30.40,NE,38,0.0,1.0,61,0.00,,,0.01,Wunderground v.1.15,2013-04-21 01:58:00,
2013-04-20 21:04:00,28.6,16.8,30.41,NNE,32,0.0,0.0,61,0.00,,,0.01,Wunderground v.1.15,2013-04-21 02:04:00,
2013-04-20 21:10:00,28.5,16.7,30.41,North,5,0.0,0.0,61,0.00,,,0.01,Wunderground v.1.15,2013-04-21 02:10:00,
2013-04-20 21:16:00,28.4,16.7,30.41,NNE,21,0.0,1.0,61,0.00,,,0.01,Wunderground v.1.15,2013-04-21 02:16:00,
2013-04-20 21:22:00,28.5,16.4,30.41,ENE,63,0.0,0.0,60,0.00,,,0.01,Wunderground v.1.15,2013-04-21 02:22:00,
2013-04-20 21:28:00,28.4,15.9,30.41,ENE,64,0.0,0.0,59,0.00,,,0.01,Wunderground v.1.15,2013-04-21 02:28:00,
2013-04-20 21:34:00,28.5,16.0,30.42,NNW,345,0.0,0.0,59,0.00,,,0.01,Wunderground v.1.15,2013-04-21 02:34:00,
2013-04-20 21:40:00,28.5,16.4,30.42,North,352,0.0,0.0,60,0.00,,,0.01,Wunderground v.1.15,2013-04-21 02:40:00,
2013-04-20 21:46:00,28.4,17.0,30.42,North,4,0.0,0.0,62,0.00,,,0.01,Wunderground v.1.15,2013-04-21 02:46:00,
2013-04-20 21:52:00,28.3,17.3,30.42,NE,36,0.0,0.0,63,0.00,,,0.01,Wunderground v.1.15,2013-04-21 02:52:00,
2013-04-20 21:58:00,28.2,17.6,30.43,North,357,0.0,0.0,64,0.00,,,0.01,Wunderground v.1.15,2013-04-21 02:58:00,
2013-04-20 22:04:00,28.1,17.8,30.43,North,11,0.0,0.0,65,0.00,,,0.01,Wunderground v.1.15,2013-04-21 03:04:00,
2013-04-20 22:10:00,28.1,18.2,30.43,NE,36,0.0,0.0,66,0.00,,,0.01,Wunderground v.1.15,2013-04-21 03:10:00,
2013-04-20 22:16:00,27.7,18.2,30.43,NE,36,0.0,0.0,67,0.00,,,0.01,Wunderground v.1.15,2013-04-21 03:16:00,
2013-04-20 22:22:00,27.4,18.2,30.43,NE,35,0.0,0.0,68,0.00,,,0.01,Wunderground v.1.15,2013-04-21 03:22:00,
2013-04-20 22:28:00,27.1,18.3,30.43,NE,36,0.0,0.0,69,0.00,,,0.01,Wunderground v.1.15,2013-04-21 03:28:00,
2013-04-20 22:34:00,27.0,18.2,30.43,NE,36,0.0,0.0,69,0.00,,,0.01,Wunderground v.1.15,2013-04-21 03:34:00,
2013-04-20 22:40:00,26.6,17.8,30.44,NE,36,0.0,0.0,69,0.00,,,0.01,Wunderground v.1.15,2013-04-21 03:40:00,
2013-04-20 22:46:00,26.3,17.8,30.43,NE,36,0.0,0.0,70,0.00,,,0.01,Wunderground v.1.15,2013-04-21 03:46:00,
2013-04-20 22:52:00,25.9,17.8,30.44,NE,35,0.0,0.0,71,0.00,,,0.01,Wunderground v.1.15,2013-04-21 03:52:00,
2013-04-20 22:58:00,25.7,17.9,30.44,NE,35,0.0,1.0,72,0.00,,,0.01,Wunderground v.1.15,2013-04-21 03:58:00,
2013-04-20 23:02:00,25.5,18.0,30.44,NE,35,0.0,0.0,73,0.00,,,0.00,Wunderground v.1.15,2013-04-21 04:02:00,
2013-04-20 23:08:00,25.3,18.2,30.44,NE,35,0.0,0.0,74,0.00,,,0.00,Wunderground v.1.15,2013-04-21 04:08:00,
2013-04-20 23:10:00,25.4,18.3,30.44,NE,36,0.0,0.0,74,0.00,,,0.00,Wunderground v.1.15,2013-04-21 04:10:00,
2013-04-20 23:12:00,25.4,18.3,30.44,NE,36,0.0,0.0,74,0.00,,,0.00,Wunderground v.1.15,2013-04-21 04:12:00,
2013-04-20 23:14:00,25.4,18.3,30.44,NE,36,0.0,0.0,74,0.00,,,0.00,Wunderground v.1.15,2013-04-21 04:14:00,
2013-04-20 23:20:00,25.3,18.2,30.44,NE,36,0.0,0.0,74,0.00,,,0.00,Wunderground v.1.15,2013-04-21 04:20:00,
2013-04-20 23:26:00,25.0,18.2,30.44,NE,36,0.0,0.0,75,0.00,,,0.00,Wunderground v.1.15,2013-04-21 04:26:00,
2013-04-20 23:32:00,24.8,18.0,30.45,NE,36,0.0,0.0,75,0.00,,,0.00,Wunderground v.1.15,2013-04-21 04:32:00,
2013-04-20 23:38:00,24.3,17.8,30.45,NE,35,0.0,0.0,76,0.00,,,0.00,Wunderground v.1.15,2013-04-21 04:38:00,
2013-04-20 23:44:00,24.3,18.1,30.45,NE,36,0.0,0.0,77,0.00,,,0.00,Wunderground v.1.15,2013-04-21 04:44:00,
2013-04-20 23:46:00,24.3,18.4,30.45,NE,36,0.0,0.0,78,0.00,,,0.00,Wunderground v.1.15,2013-04-21 04:46:00,
2013-04-20 23:52:00,24.5,18.9,30.45,NE,36,0.0,0.0,79,0.00,,,0.00,Wunderground v.1.15,2013-04-21 04:52:00,
2013-04-20 23:58:00,24.6,19.6,30.45,NE,35,0.0,0.0,81,0.00,,,0.00,Wunderground v.1.15,2013-04-21 04:58:00,